sensor_id;sensor_type;location;lat;lon;timestamp;pressure;altitude;pressure_sealevel;temperature;humidity
9421;BME280;4749;51.398;5.466;2023-08-06T00:01:02;100187.03;;;16.82;100.00
9421;BME280;4749;51.398;5.466;2023-08-06T00:03:29;100187.88;;;16.82;100.00
9421;BME280;4749;51.398;5.466;2023-08-06T00:05:56;100185.22;;;16.82;100.00
9421;BME280;4749;51.398;5.466;2023-08-06T00:08:24;100194.81;;;16.86;100.00
9421;BME280;4749;51.398;5.466;2023-08-06T00:10:51;100190.44;;;16.85;100.00
9421;BME280;4749;51.398;5.466;2023-08-06T00:13:18;100193.88;;;16.87;100.00
9421;BME280;4749;51.398;5.466;2023-08-06T00:15:45;100187.66;;;16.88;100.00
9421;BME280;4749;51.398;5.466;2023-08-06T00:18:12;100189.56;;;16.85;100.00
9421;BME280;4749;51.398;5.466;2023-08-06T00:20:39;100187.91;;;16.81;100.00
9421;BME280;4749;51.398;5.466;2023-08-06T00:23:08;100180.97;;;16.77;100.00
9421;BME280;4749;51.398;5.466;2023-08-06T00:25:36;100181.84;;;16.77;100.00
9421;BME280;4749;51.398;5.466;2023-08-06T00:28:03;100180.94;;;16.78;100.00
9421;BME280;4749;51.398;5.466;2023-08-06T00:30:31;100185.22;;;16.82;100.00
9421;BME280;4749;51.398;5.466;2023-08-06T00:32:58;100178.13;;;16.83;100.00
9421;BME280;4749;51.398;5.466;2023-08-06T00:35:25;100179.94;;;16.82;100.00
9421;BME280;4749;51.398;5.466;2023-08-06T00:37:52;100179.09;;;16.80;100.00
9421;BME280;4749;51.398;5.466;2023-08-06T00:40:22;100179.94;;;16.81;100.00
9421;BME280;4749;51.398;5.466;2023-08-06T00:42:50;100179.25;;;16.76;100.00
9421;BME280;4749;51.398;5.466;2023-08-06T00:45:17;100174.00;;;16.74;100.00
9421;BME280;4749;51.398;5.466;2023-08-06T00:47:44;100173.06;;;16.75;100.00
9421;BME280;4749;51.398;5.466;2023-08-06T00:50:12;100176.59;;;16.76;100.00
9421;BME280;4749;51.398;5.466;2023-08-06T00:52:40;100165.97;;;16.76;100.00
9421;BME280;4749;51.398;5.466;2023-08-06T00:55:08;100175.63;;;16.78;100.00
9421;BME280;4749;51.398;5.466;2023-08-06T00:57:35;100169.38;;;16.79;100.00
9421;BME280;4749;51.398;5.466;2023-08-06T01:00:04;100166.69;;;16.81;100.00
9421;BME280;4749;51.398;5.466;2023-08-06T01:02:38;100170.16;;;16.83;100.00
9421;BME280;4749;51.398;5.466;2023-08-06T01:05:06;100166.47;;;16.87;100.00
9421;BME280;4749;51.398;5.466;2023-08-06T01:13:30;100156.38;;;16.72;100.00
9421;BME280;4749;51.398;5.466;2023-08-06T01:15:59;100161.69;;;16.72;100.00
9421;BME280;4749;51.398;5.466;2023-08-06T01:18:27;100162.66;;;16.69;100.00
9421;BME280;4749;51.398;5.466;2023-08-06T01:20:54;100166.19;;;16.70;100.00
9421;BME280;4749;51.398;5.466;2023-08-06T01:23:21;100170.63;;;16.69;100.00
9421;BME280;4749;51.398;5.466;2023-08-06T01:26:30;100168.78;;;16.71;100.00
9421;BME280;4749;51.398;5.466;2023-08-06T01:29:17;100160.56;;;16.79;100.00
9421;BME280;4749;51.398;5.466;2023-08-06T01:31:48;100159.56;;;16.81;100.00
9421;BME280;4749;51.398;5.466;2023-08-06T01:34:29;100160.63;;;16.77;100.00
9421;BME280;4749;51.398;5.466;2023-08-06T01:36:58;100158.16;;;16.71;100.00
9421;BME280;4749;51.398;5.466;2023-08-06T01:39:26;100160.81;;;16.71;100.00
9421;BME280;4749;51.398;5.466;2023-08-06T01:41:53;100166.97;;;16.72;100.00
9421;BME280;4749;51.398;5.466;2023-08-06T01:44:21;100163.47;;;16.71;100.00
9421;BME280;4749;51.398;5.466;2023-08-06T01:46:48;100162.50;;;16.74;100.00
9421;BME280;4749;51.398;5.466;2023-08-06T01:49:15;100151.84;;;16.75;100.00
9421;BME280;4749;51.398;5.466;2023-08-06T01:51:42;100157.16;;;16.75;100.00
9421;BME280;4749;51.398;5.466;2023-08-06T01:54:09;100160.47;;;16.82;100.00
9421;BME280;4749;51.398;5.466;2023-08-06T01:56:36;100157.03;;;16.78;100.00
9421;BME280;4749;51.398;5.466;2023-08-06T01:59:03;100158.88;;;16.76;100.00
9421;BME280;4749;51.398;5.466;2023-08-06T02:01:31;100157.03;;;16.78;100.00
9421;BME280;4749;51.398;5.466;2023-08-06T02:03:58;100160.81;;;16.71;100.00
9421;BME280;4749;51.398;5.466;2023-08-06T02:06:25;100155.50;;;16.71;100.00
9421;BME280;4749;51.398;5.466;2023-08-06T02:08:53;100162.59;;;16.71;100.00
9421;BME280;4749;51.398;5.466;2023-08-06T02:11:20;100158.16;;;16.71;100.00
9421;BME280;4749;51.398;5.466;2023-08-06T02:13:47;100159.88;;;16.72;100.00
9421;BME280;4749;51.398;5.466;2023-08-06T02:16:14;100160.75;;;16.73;100.00
9421;BME280;4749;51.398;5.466;2023-08-06T02:18:41;100159.03;;;16.72;100.00
9421;BME280;4749;51.398;5.466;2023-08-06T02:21:08;100150.25;;;16.70;100.00
9421;BME280;4749;51.398;5.466;2023-08-06T02:23:35;100146.81;;;16.66;100.00
9421;BME280;4749;51.398;5.466;2023-08-06T02:26:05;100153.06;;;16.64;100.00
9421;BME280;4749;51.398;5.466;2023-08-06T02:28:32;100152.25;;;16.61;100.00
9421;BME280;4749;51.398;5.466;2023-08-06T02:30:59;100159.41;;;16.59;100.00
9421;BME280;4749;51.398;5.466;2023-08-06T02:33:26;100157.69;;;16.58;100.00
9421;BME280;4749;51.398;5.466;2023-08-06T02:36:02;100144.47;;;16.57;100.00
9421;BME280;4749;51.398;5.466;2023-08-06T02:38:31;100148.94;;;16.55;100.00
9421;BME280;4749;51.398;5.466;2023-08-06T02:40:59;100151.59;;;16.55;100.00
9421;BME280;4749;51.398;5.466;2023-08-06T02:43:26;100149.00;;;16.53;100.00
9421;BME280;4749;51.398;5.466;2023-08-06T02:45:57;100151.63;;;16.53;100.00
9421;BME280;4749;51.398;5.466;2023-08-06T02:48:25;100147.19;;;16.54;100.00
9421;BME280;4749;51.398;5.466;2023-08-06T02:50:52;100145.41;;;16.54;100.00
9421;BME280;4749;51.398;5.466;2023-08-06T02:53:19;100143.63;;;16.55;100.00
9421;BME280;4749;51.398;5.466;2023-08-06T02:55:47;100139.25;;;16.54;100.00
9421;BME280;4749;51.398;5.466;2023-08-06T02:58:15;100143.69;;;16.53;100.00
9421;BME280;4749;51.398;5.466;2023-08-06T03:00:43;100144.56;;;16.54;100.00
9421;BME280;4749;51.398;5.466;2023-08-06T03:03:10;100137.44;;;16.54;100.00
9421;BME280;4749;51.398;5.466;2023-08-06T03:05:38;100143.59;;;16.56;100.00
9421;BME280;4749;51.398;5.466;2023-08-06T03:08:05;100137.31;;;16.59;100.00
9421;BME280;4749;51.398;5.466;2023-08-06T03:10:32;100140.78;;;16.61;100.00
9421;BME280;4749;51.398;5.466;2023-08-06T03:12:59;100142.44;;;16.64;100.00
9421;BME280;4749;51.398;5.466;2023-08-06T03:15:26;100138.88;;;16.65;100.00
9421;BME280;4749;51.398;5.466;2023-08-06T03:17:56;100137.94;;;16.67;100.00
9421;BME280;4749;51.398;5.466;2023-08-06T03:20:25;100148.53;;;16.67;100.00
9421;BME280;4749;51.398;5.466;2023-08-06T03:22:52;100146.75;;;16.68;100.00
9421;BME280;4749;51.398;5.466;2023-08-06T03:25:19;100139.72;;;16.67;100.00
9421;BME280;4749;51.398;5.466;2023-08-06T03:27:46;100141.50;;;16.66;100.00
9421;BME280;4749;51.398;5.466;2023-08-06T03:30:13;100143.25;;;16.67;100.00
9421;BME280;4749;51.398;5.466;2023-08-06T03:32:40;100146.75;;;16.68;100.00
9421;BME280;4749;51.398;5.466;2023-08-06T03:35:08;100148.53;;;16.69;100.00
9421;BME280;4749;51.398;5.466;2023-08-06T03:37:35;100147.63;;;16.68;100.00
9421;BME280;4749;51.398;5.466;2023-08-06T03:40:05;100149.38;;;16.69;100.00
9421;BME280;4749;51.398;5.466;2023-08-06T03:42:32;100145.81;;;16.70;100.00
9421;BME280;4749;51.398;5.466;2023-08-06T03:44:59;100148.47;;;16.70;100.00
9421;BME280;4749;51.398;5.466;2023-08-06T03:47:26;100151.13;;;16.70;100.00
9421;BME280;4749;51.398;5.466;2023-08-06T03:49:53;100148.47;;;16.70;100.00
9421;BME280;4749;51.398;5.466;2023-08-06T03:52:20;100155.56;;;16.70;100.00
9421;BME280;4749;51.398;5.466;2023-08-06T03:54:47;100154.69;;;16.69;100.00
9421;BME280;4749;51.398;5.466;2023-08-06T03:57:14;100148.47;;;16.70;100.00
9421;BME280;4749;51.398;5.466;2023-08-06T03:59:42;100153.72;;;16.72;100.00
9421;BME280;4749;51.398;5.466;2023-08-06T04:02:20;100158.16;;;16.71;100.00
9421;BME280;4749;51.398;5.466;2023-08-06T04:04:48;100152.78;;;16.73;100.00
9421;BME280;4749;51.398;5.466;2023-08-06T04:07:15;100163.38;;;16.74;100.00
9421;BME280;4749;51.398;5.466;2023-08-06T04:09:58;100159.81;;;16.75;100.00
9421;BME280;4749;51.398;5.466;2023-08-06T04:12:26;100158.88;;;16.76;100.00
9421;BME280;4749;51.398;5.466;2023-08-06T04:14:55;100161.44;;;16.79;100.00
9421;BME280;4749;51.398;5.466;2023-08-06T04:17:22;100164.94;;;16.80;100.00
9421;BME280;4749;51.398;5.466;2023-08-06T04:19:53;100167.53;;;16.81;100.00
9421;BME280;4749;51.398;5.466;2023-08-06T04:22:21;100167.53;;;16.81;100.00
9421;BME280;4749;51.398;5.466;2023-08-06T04:24:48;100169.34;;;16.81;100.00
9421;BME280;4749;51.398;5.466;2023-08-06T04:27:19;100166.69;;;16.81;100.00
9421;BME280;4749;51.398;5.466;2023-08-06T04:29:47;100174.63;;;16.81;100.00
9421;BME280;4749;51.398;5.466;2023-08-06T04:32:14;100170.25;;;16.80;100.00
9421;BME280;4749;51.398;5.466;2023-08-06T04:34:41;100173.78;;;16.80;100.00
9421;BME280;4749;51.398;5.466;2023-08-06T04:37:08;100162.28;;;16.80;100.00
9421;BME280;4749;51.398;5.466;2023-08-06T04:39:35;100177.28;;;16.82;100.00
9421;BME280;4749;51.398;5.466;2023-08-06T04:42:03;100178.06;;;16.84;100.00
9421;BME280;4749;51.398;5.466;2023-08-06T04:44:30;100180.63;;;16.87;100.00
9421;BME280;4749;51.398;5.466;2023-08-06T04:46:57;100179.59;;;16.92;100.00
9421;BME280;4749;51.398;5.466;2023-08-06T04:49:25;100181.28;;;16.94;100.00
9421;BME280;4749;51.398;5.466;2023-08-06T04:51:52;100178.56;;;16.96;100.00
9421;BME280;4749;51.398;5.466;2023-08-06T04:54:19;100184.75;;;16.96;100.00
9421;BME280;4749;51.398;5.466;2023-08-06T04:56:47;100191.72;;;17.00;100.00
9421;BME280;4749;51.398;5.466;2023-08-06T04:59:14;100190.78;;;17.01;100.00
9421;BME280;4749;51.398;5.466;2023-08-06T05:01:41;100200.41;;;17.04;100.00
9421;BME280;4749;51.398;5.466;2023-08-06T05:04:08;100202.16;;;17.05;100.00
9421;BME280;4749;51.398;5.466;2023-08-06T05:06:35;100200.22;;;17.10;100.00
9421;BME280;4749;51.398;5.466;2023-08-06T05:09:05;100204.34;;;17.19;100.00
9421;BME280;4749;51.398;5.466;2023-08-06T05:11:33;100203.97;;;17.29;100.00
9421;BME280;4749;51.398;5.466;2023-08-06T05:14:00;100205.34;;;17.41;100.00
9421;BME280;4749;51.398;5.466;2023-08-06T05:16:28;100211.13;;;17.52;100.00
9421;BME280;4749;51.398;5.466;2023-08-06T05:18:55;100207.22;;;17.62;100.00
9421;BME280;4749;51.398;5.466;2023-08-06T05:21:22;100213.03;;;17.73;100.00
9421;BME280;4749;51.398;5.466;2023-08-06T05:23:49;100210.00;;;17.84;100.00
9421;BME280;4749;51.398;5.466;2023-08-06T05:26:16;100209.59;;;17.95;100.00
9421;BME280;4749;51.398;5.466;2023-08-06T05:28:45;100214.41;;;18.09;100.00
9421;BME280;4749;51.398;5.466;2023-08-06T05:31:13;100216.50;;;18.22;100.00
9421;BME280;4749;51.398;5.466;2023-08-06T05:33:40;100218.41;;;18.42;100.00
9421;BME280;4749;51.398;5.466;2023-08-06T05:36:07;100217.03;;;18.54;100.00
9421;BME280;4749;51.398;5.466;2023-08-06T05:38:34;100220.19;;;18.64;100.00
9421;BME280;4749;51.398;5.466;2023-08-06T05:41:01;100220.00;;;18.70;100.00
9421;BME280;4749;51.398;5.466;2023-08-06T05:43:28;100230.19;;;18.80;100.00
9421;BME280;4749;51.398;5.466;2023-08-06T05:45:56;100236.00;;;18.90;100.00
9421;BME280;4749;51.398;5.466;2023-08-06T05:48:24;100238.50;;;18.95;100.00
9421;BME280;4749;51.398;5.466;2023-08-06T05:50:52;100238.25;;;19.01;100.00
9421;BME280;4749;51.398;5.466;2023-08-06T05:53:19;100240.78;;;19.04;100.00
9421;BME280;4749;51.398;5.466;2023-08-06T05:55:47;100245.97;;;19.07;100.00
9421;BME280;4749;51.398;5.466;2023-08-06T05:58:14;100251.84;;;19.15;100.00
9421;BME280;4749;51.398;5.466;2023-08-06T06:00:41;100253.16;;;19.25;100.00
9421;BME280;4749;51.398;5.466;2023-08-06T06:03:09;100255.66;;;19.30;100.00
9421;BME280;4749;51.398;5.466;2023-08-06T06:05:38;100259.97;;;19.32;100.00
9421;BME280;4749;51.398;5.466;2023-08-06T06:08:08;100257.94;;;19.39;100.00
9421;BME280;4749;51.398;5.466;2023-08-06T06:10:35;100263.00;;;19.45;100.00
9421;BME280;4749;51.398;5.466;2023-08-06T06:13:02;100262.41;;;19.59;100.00
9421;BME280;4749;51.398;5.466;2023-08-06T06:15:29;100268.09;;;19.72;100.00
9421;BME280;4749;51.398;5.466;2023-08-06T06:17:57;100267.84;;;19.78;100.00
9421;BME280;4749;51.398;5.466;2023-08-06T06:20:24;100270.50;;;19.78;100.00
9421;BME280;4749;51.398;5.466;2023-08-06T06:22:51;100270.63;;;19.75;100.00
9421;BME280;4749;51.398;5.466;2023-08-06T06:25:18;100281.16;;;19.78;100.00
9421;BME280;4749;51.398;5.466;2023-08-06T06:27:45;100275.38;;;19.68;100.00
9421;BME280;4749;51.398;5.466;2023-08-06T06:30:12;100285.13;;;19.47;100.00
9421;BME280;4749;51.398;5.466;2023-08-06T06:32:40;100293.97;;;19.27;100.00
9421;BME280;4749;51.398;5.466;2023-08-06T06:35:08;100297.69;;;19.23;100.00
9421;BME280;4749;51.398;5.466;2023-08-06T06:37:35;100298.00;;;19.16;100.00
9421;BME280;4749;51.398;5.466;2023-08-06T06:40:03;100310.91;;;19.04;100.00
9421;BME280;4749;51.398;5.466;2023-08-06T06:42:30;100306.56;;;18.80;100.00
9421;BME280;4749;51.398;5.466;2023-08-06T06:44:57;100316.38;;;18.54;100.00
9421;BME280;4749;51.398;5.466;2023-08-06T06:47:25;100314.38;;;18.38;100.00
9421;BME280;4749;51.398;5.466;2023-08-06T06:49:52;100311.47;;;18.20;100.00
9421;BME280;4749;51.398;5.466;2023-08-06T06:52:20;100320.19;;;18.00;100.00
9421;BME280;4749;51.398;5.466;2023-08-06T06:54:47;100319.34;;;17.75;100.00
9421;BME280;4749;51.398;5.466;2023-08-06T06:57:14;100331.91;;;17.43;100.00
9421;BME280;4749;51.398;5.466;2023-08-06T06:59:41;100342.47;;;17.19;100.00
9421;BME280;4749;51.398;5.466;2023-08-06T07:02:08;100340.47;;;16.99;100.00
9421;BME280;4749;51.398;5.466;2023-08-06T07:04:35;100338.28;;;16.83;100.00
9421;BME280;4749;51.398;5.466;2023-08-06T07:07:03;100352.03;;;16.67;100.00
9421;BME280;4749;51.398;5.466;2023-08-06T07:09:30;100348.84;;;16.54;100.00
9421;BME280;4749;51.398;5.466;2023-08-06T07:11:57;100350.78;;;16.49;100.00
9421;BME280;4749;51.398;5.466;2023-08-06T07:14:25;100354.31;;;16.49;100.00
9421;BME280;4749;51.398;5.466;2023-08-06T07:16:52;100362.22;;;16.51;100.00
9421;BME280;4749;51.398;5.466;2023-08-06T07:19:20;100357.78;;;16.51;100.00
9421;BME280;4749;51.398;5.466;2023-08-06T07:21:47;100370.91;;;16.56;100.00
9421;BME280;4749;51.398;5.466;2023-08-06T07:24:14;100368.63;;;16.44;100.00
9421;BME280;4749;51.398;5.466;2023-08-06T07:26:41;100382.56;;;16.19;100.00
9421;BME280;4749;51.398;5.466;2023-08-06T07:29:08;100394.50;;;16.03;100.00
9421;BME280;4749;51.398;5.466;2023-08-06T07:31:36;100394.84;;;15.91;100.00
9421;BME280;4749;51.398;5.466;2023-08-06T07:34:03;100397.66;;;15.85;100.00
9421;BME280;4749;51.398;5.466;2023-08-06T07:36:30;100399.56;;;15.78;100.00
9421;BME280;4749;51.398;5.466;2023-08-06T07:38:57;100410.22;;;15.76;100.00
9421;BME280;4749;51.398;5.466;2023-08-06T07:41:25;100417.16;;;15.82;100.00
9421;BME280;4749;51.398;5.466;2023-08-06T07:43:52;100411.63;;;15.91;100.00
9421;BME280;4749;51.398;5.466;2023-08-06T07:46:19;100412.53;;;15.90;100.00
9421;BME280;4749;51.398;5.466;2023-08-06T07:48:46;100421.47;;;15.86;100.00
9421;BME280;4749;51.398;5.466;2023-08-06T07:51:13;100433.78;;;15.87;100.00
9421;BME280;4749;51.398;5.466;2023-08-06T07:53:40;100430.16;;;15.91;100.00
9421;BME280;4749;51.398;5.466;2023-08-06T07:56:07;100434.56;;;15.92;100.00
9421;BME280;4749;51.398;5.466;2023-08-06T07:58:34;100445.06;;;15.95;100.00
9421;BME280;4749;51.398;5.466;2023-08-06T08:01:01;100428.31;;;15.95;100.00
9421;BME280;4749;51.398;5.466;2023-08-06T08:03:31;100426.53;;;15.95;100.00
9421;BME280;4749;51.398;5.466;2023-08-06T08:05:58;100439.78;;;15.95;100.00
9421;BME280;4749;51.398;5.466;2023-08-06T08:08:26;100438.59;;;16.07;100.00
9421;BME280;4749;51.398;5.466;2023-08-06T08:10:54;100436.63;;;16.14;100.00
9421;BME280;4749;51.398;5.466;2023-08-06T08:13:22;100434.91;;;16.13;100.00
9421;BME280;4749;51.398;5.466;2023-08-06T08:15:49;100452.53;;;16.15;100.00
9421;BME280;4749;51.398;5.466;2023-08-06T08:18:16;100445.19;;;16.25;100.00
9421;BME280;4749;51.398;5.466;2023-08-06T08:20:44;100449.34;;;16.35;100.00
9421;BME280;4749;51.398;5.466;2023-08-06T08:23:11;100450.31;;;16.31;100.00
9421;BME280;4749;51.398;5.466;2023-08-06T08:25:38;100462.94;;;16.23;100.00
9421;BME280;4749;51.398;5.466;2023-08-06T08:28:05;100463.88;;;16.20;100.00
9421;BME280;4749;51.398;5.466;2023-08-06T08:30:32;100465.78;;;16.15;100.00
9421;BME280;4749;51.398;5.466;2023-08-06T08:32:59;100472.94;;;16.12;100.00
9421;BME280;4749;51.398;5.466;2023-08-06T08:35:26;100467.47;;;16.18;100.00
9421;BME280;4749;51.398;5.466;2023-08-06T08:37:53;100472.19;;;16.39;100.00
9421;BME280;4749;51.398;5.466;2023-08-06T08:40:22;100478.56;;;16.66;100.00
9421;BME280;4749;51.398;5.466;2023-08-06T08:42:59;100467.06;;;16.97;100.00
9421;BME280;4749;51.398;5.466;2023-08-06T08:45:29;100475.00;;;17.28;100.00
9421;BME280;4749;51.398;5.466;2023-08-06T08:47:57;100467.69;;;17.62;100.00
9421;BME280;4749;51.398;5.466;2023-08-06T08:50:24;100478.44;;;17.87;100.00
9421;BME280;4749;51.398;5.466;2023-08-06T08:52:52;100479.81;;;17.99;100.00
9421;BME280;4749;51.398;5.466;2023-08-06T08:55:20;100488.56;;;18.03;100.00
9421;BME280;4749;51.398;5.466;2023-08-06T08:57:48;100479.41;;;18.11;100.00
9421;BME280;4749;51.398;5.466;2023-08-06T09:00:15;100483.75;;;18.14;100.00
9421;BME280;4749;51.398;5.466;2023-08-06T09:02:44;100489.22;;;18.09;100.00
9421;BME280;4749;51.398;5.466;2023-08-06T09:05:11;100488.88;;;17.93;100.00
9421;BME280;4749;51.398;5.466;2023-08-06T09:07:42;100490.97;;;17.84;100.00
9421;BME280;4749;51.398;5.466;2023-08-06T09:10:14;100502.91;;;17.70;100.00
9421;BME280;4749;51.398;5.466;2023-08-06T09:12:45;100507.72;;;17.58;100.00
9421;BME280;4749;51.398;5.466;2023-08-06T09:15:13;100509.69;;;17.51;100.00
9421;BME280;4749;51.398;5.466;2023-08-06T09:17:40;100510.56;;;17.52;100.00
9421;BME280;4749;51.398;5.466;2023-08-06T09:20:14;100518.59;;;17.50;100.00
9421;BME280;4749;51.398;5.466;2023-08-06T09:22:42;100515.19;;;17.45;100.00
9421;BME280;4749;51.398;5.466;2023-08-06T09:25:11;100520.63;;;17.42;100.00
9421;BME280;4749;51.398;5.466;2023-08-06T09:27:40;100531.53;;;17.33;100.00
9421;BME280;4749;51.398;5.466;2023-08-06T09:30:08;100532.69;;;17.23;100.00
9421;BME280;4749;51.398;5.466;2023-08-06T09:32:48;100537.47;;;17.11;100.00
9421;BME280;4749;51.398;5.466;2023-08-06T09:35:18;100541.16;;;17.06;100.00
9421;BME280;4749;51.398;5.466;2023-08-06T09:37:45;100550.09;;;17.03;100.00
9421;BME280;4749;51.398;5.466;2023-08-06T09:42:54;100558.16;;;17.00;100.00
9421;BME280;4749;51.398;5.466;2023-08-06T09:45:22;100550.28;;;16.96;100.00
9421;BME280;4749;51.398;5.466;2023-08-06T09:47:50;100559.19;;;16.95;100.00
9421;BME280;4749;51.398;5.466;2023-08-06T09:50:20;100561.78;;;16.96;100.00
9421;BME280;4749;51.398;5.466;2023-08-06T09:52:48;100567.06;;;16.98;100.00
9421;BME280;4749;51.398;5.466;2023-08-06T09:55:15;100562.53;;;17.01;100.00
9421;BME280;4749;51.398;5.466;2023-08-06T09:57:43;100569.63;;;17.01;100.00
9421;BME280;4749;51.398;5.466;2023-08-06T10:00:11;100576.75;;;17.00;100.00
9421;BME280;4749;51.398;5.466;2023-08-06T10:02:40;100577.66;;;16.99;100.00
9421;BME280;4749;51.398;5.466;2023-08-06T10:05:10;100574.03;;;17.02;100.00
9421;BME280;4749;51.398;5.466;2023-08-06T10:07:39;100577.34;;;17.10;100.00
9421;BME280;4749;51.398;5.466;2023-08-06T10:10:07;100578.88;;;17.19;100.00
9421;BME280;4749;51.398;5.466;2023-08-06T10:12:39;100581.22;;;17.29;100.00
9421;BME280;4749;51.398;5.466;2023-08-06T10:15:15;100583.53;;;17.41;100.00
9421;BME280;4749;51.398;5.466;2023-08-06T10:17:45;100584.25;;;17.47;100.00
9421;BME280;4749;51.398;5.466;2023-08-06T10:20:17;100588.63;;;17.48;100.00
9421;BME280;4749;51.398;5.466;2023-08-06T10:22:46;100586.91;;;17.47;100.00
9421;BME280;4749;51.398;5.466;2023-08-06T10:25:16;100583.59;;;17.38;100.00
9421;BME280;4749;51.398;5.466;2023-08-06T10:30:29;100587.38;;;17.30;100.00
9421;BME280;4749;51.398;5.466;2023-08-06T10:33:04;100592.75;;;17.28;100.00
9421;BME280;4749;51.398;5.466;2023-08-06T10:35:40;100585.75;;;17.26;100.00
9421;BME280;4749;51.398;5.466;2023-08-06T10:38:12;100587.31;;;17.33;100.00
9421;BME280;4749;51.398;5.466;2023-08-06T10:41:02;100585.25;;;17.42;100.00
9421;BME280;4749;51.398;5.466;2023-08-06T10:43:37;100587.63;;;17.52;100.00
9421;BME280;4749;51.398;5.466;2023-08-06T10:46:26;100590.94;;;17.60;100.00
9421;BME280;4749;51.398;5.466;2023-08-06T10:48:54;100594.25;;;17.68;100.00
9421;BME280;4749;51.398;5.466;2023-08-06T10:51:21;100595.91;;;17.72;100.00
9421;BME280;4749;51.398;5.466;2023-08-06T10:53:50;100596.59;;;17.79;100.00
9421;BME280;4749;51.398;5.466;2023-08-06T10:56:20;100600.75;;;17.87;100.00
9421;BME280;4749;51.398;5.466;2023-08-06T10:58:53;100604.03;;;17.95;100.00
9421;BME280;4749;51.398;5.466;2023-08-06T11:01:23;100609.13;;;18.03;100.00
9421;BME280;4749;51.398;5.466;2023-08-06T11:03:51;100608.94;;;18.09;100.00
9421;BME280;4749;51.398;5.466;2023-08-06T11:06:21;100607.91;;;18.13;100.00
9421;BME280;4749;51.398;5.466;2023-08-06T11:08:54;100608.63;;;18.18;100.00
9421;BME280;4749;51.398;5.466;2023-08-06T11:11:23;100603.22;;;18.21;100.00
9421;BME280;4749;51.398;5.466;2023-08-06T11:13:52;100609.50;;;18.19;100.00
9421;BME280;4749;51.398;5.466;2023-08-06T11:16:23;100607.91;;;18.13;100.00
9421;BME280;4749;51.398;5.466;2023-08-06T11:18:54;100609.94;;;18.05;100.00
9421;BME280;4749;51.398;5.466;2023-08-06T11:21:23;100616.13;;;18.06;100.00
9421;BME280;4749;51.398;5.466;2023-08-06T11:23:52;100618.53;;;18.13;100.00
9421;BME280;4749;51.398;5.466;2023-08-06T11:26:21;100616.69;;;18.15;100.00
9421;BME280;4749;51.398;5.466;2023-08-06T11:28:49;100617.50;;;18.19;100.00
9421;BME280;4749;51.398;5.466;2023-08-06T11:31:20;100617.63;;;18.14;100.00
9421;BME280;4749;51.398;5.466;2023-08-06T11:33:52;100622.13;;;18.12;100.00
9421;BME280;4749;51.398;5.466;2023-08-06T11:36:40;100614.97;;;18.14;100.00
9421;BME280;4749;51.398;5.466;2023-08-06T11:39:08;100626.41;;;18.18;100.00
9421;BME280;4749;51.398;5.466;2023-08-06T11:41:36;100624.41;;;18.24;100.00
9421;BME280;4749;51.398;5.466;2023-08-06T11:44:11;100624.13;;;18.34;100.00
9421;BME280;4749;51.398;5.466;2023-08-06T11:46:53;100628.34;;;18.39;100.00
9421;BME280;4749;51.398;5.466;2023-08-06T11:49:44;100619.41;;;18.42;100.00
9421;BME280;4749;51.398;5.466;2023-08-06T11:52:26;100629.06;;;18.44;100.00
9421;BME280;4749;51.398;5.466;2023-08-06T11:57:35;100624.41;;;18.51;100.00
9421;BME280;4749;51.398;5.466;2023-08-06T12:00:05;100625.34;;;18.50;100.00
9421;BME280;4749;51.398;5.466;2023-08-06T12:02:34;100635.00;;;18.52;100.00
9421;BME280;4749;51.398;5.466;2023-08-06T12:05:09;100628.59;;;18.58;100.00
9421;BME280;4749;51.398;5.466;2023-08-06T12:07:42;100628.41;;;18.64;100.00
9421;BME280;4749;51.398;5.466;2023-08-06T12:10:13;100637.25;;;18.65;100.00
9421;BME280;4749;51.398;5.466;2023-08-06T12:12:40;100633.03;;;18.59;100.00
9421;BME280;4749;51.398;5.466;2023-08-06T12:15:09;100643.25;;;18.45;100.00
9421;BME280;4749;51.398;5.466;2023-08-06T12:17:37;100642.13;;;18.24;100.00
9421;BME280;4749;51.398;5.466;2023-08-06T12:20:06;100643.03;;;18.24;100.00
9421;BME280;4749;51.398;5.466;2023-08-06T12:22:35;100647.50;;;18.22;100.00
9421;BME280;4749;51.398;5.466;2023-08-06T12:25:07;100649.22;;;18.25;100.00
9421;BME280;4749;51.398;5.466;2023-08-06T12:27:36;100654.50;;;18.26;100.00
9421;BME280;4749;51.398;5.466;2023-08-06T12:30:04;100653.63;;;18.26;100.00
9421;BME280;4749;51.398;5.466;2023-08-06T12:32:33;100651.16;;;18.20;100.00
9421;BME280;4749;51.398;5.466;2023-08-06T12:35:00;100649.38;;;18.20;100.00
9421;BME280;4749;51.398;5.466;2023-08-06T12:37:28;100645.53;;;18.29;100.00
9421;BME280;4749;51.398;5.466;2023-08-06T12:39:56;100647.91;;;18.38;100.00
9421;BME280;4749;51.398;5.466;2023-08-06T12:42:23;100658.25;;;18.47;100.00
9421;BME280;4749;51.398;5.466;2023-08-06T12:44:51;100657.13;;;18.54;100.00
9421;BME280;4749;51.398;5.466;2023-08-06T12:47:18;100657.66;;;18.66;100.00
9421;BME280;4749;51.398;5.466;2023-08-06T12:49:46;100656.41;;;18.77;100.00
9421;BME280;4749;51.398;5.466;2023-08-06T12:52:14;100658.63;;;18.90;100.00
9421;BME280;4749;51.398;5.466;2023-08-06T12:54:42;100658.22;;;19.02;100.00
9421;BME280;4749;51.398;5.466;2023-08-06T12:57:09;100658.84;;;19.08;100.00
9421;BME280;4749;51.398;5.466;2023-08-06T12:59:37;100663.91;;;19.16;100.00
9421;BME280;4749;51.398;5.466;2023-08-06T13:02:04;100657.22;;;19.29;100.00
9421;BME280;4749;51.398;5.466;2023-08-06T13:04:31;100657.59;;;19.44;100.00
9421;BME280;4749;51.398;5.466;2023-08-06T13:07:01;100665.81;;;19.62;100.00
9421;BME280;4749;51.398;5.466;2023-08-06T13:09:28;100658.91;;;19.80;100.00
9421;BME280;4749;51.398;5.466;2023-08-06T13:11:59;100662.56;;;20.01;100.00
9421;BME280;4749;51.398;5.466;2023-08-06T13:14:27;100671.63;;;20.19;100.00
9421;BME280;4749;51.398;5.466;2023-08-06T13:16:55;100662.06;;;20.35;100.00
9421;BME280;4749;51.398;5.466;2023-08-06T13:19:23;100666.75;;;20.52;100.00
9421;BME280;4749;51.398;5.466;2023-08-06T13:24:17;100668.81;;;20.88;100.00